Time;durP1;ratioP1;P1;durP2;ratioP2;P2;SDS_P1;SDS_P2;PMS_P1;PMS_P2;Temp;Humidity;BMP_temperature;BMP_pressure;BME280_temperature;BME280_humidity;BME280_pressure;Samples;Min_cycle;Max_cycle;Signal;HPM_P1;HPM_P2
2021/10/22 00:02:00;;;;;;;2.65;0.80;;;;;;;;;;4996180;28;20040;-70
2021/10/22 00:04:25;;;;;;;3.40;0.65;;;;;;;;;;4990292;28;20042;-70
2021/10/22 00:06:51;;;;;;;3.65;0.77;;;;;;;;;;4998858;28;20515;-70
2021/10/22 00:09:16;;;;;;;5.00;1.65;;;;;;;;;;5008884;28;20034;-70
2021/10/22 00:11:45;;;;;;;5.43;1.00;;;;;;;;;;5008279;28;20609;-70
2021/10/22 00:14:11;;;;;;;3.40;1.17;;;;;;;;;;5002632;28;20284;-70
2021/10/22 00:16:36;;;;;;;2.85;0.75;;;;;;;;;;5008813;28;20029;-69
2021/10/22 00:19:02;;;;;;;2.55;0.60;;;;;;;;;;4996201;28;20076;-70
2021/10/22 00:21:27;;;;;;;2.92;0.80;;;;;;;;;;5001619;28;20033;-70
2021/10/22 00:23:52;;;;;;;4.15;0.80;;;;;;;;;;4994989;28;20034;-73
2021/10/22 00:26:17;;;;;;;2.58;0.80;;;;;;;;;;4989377;28;20034;-71
2021/10/22 00:28:43;;;;;;;1.98;0.80;;;;;;;;;;4989704;28;20049;-70
2021/10/22 00:31:08;;;;;;;3.55;0.70;;;;;;;;;;4994950;28;20023;-70
2021/10/22 00:33:34;;;;;;;1.75;0.65;;;;;;;;;;5000714;28;20514;-71
2021/10/22 00:35:59;;;;;;;2.85;0.85;;;;;;;;;;5008980;28;20038;-70
2021/10/22 00:38:24;;;;;;;1.60;0.60;;;;;;;;;;5008435;28;20026;-71
2021/10/22 00:40:51;;;;;;;1.95;0.63;;;;;;;;;;5004778;28;20045;-70
2021/10/22 00:43:17;;;;;;;2.70;0.80;;;;;;;;;;4992963;28;20084;-70
2021/10/22 00:45:42;;;;;;;2.22;0.70;;;;;;;;;;5008542;28;20385;-70
2021/10/22 00:48:07;;;;;;;2.92;0.70;;;;;;;;;;5008157;28;20389;-71
2021/10/22 00:50:36;;;;;;;2.30;0.77;;;;;;;;;;4995267;28;20036;-70
2021/10/22 00:53:01;;;;;;;4.10;0.80;;;;;;;;;;4993639;28;20042;-71
2021/10/22 00:55:29;;;;;;;6.35;0.93;;;;;;;;;;4989394;28;20035;-70
2021/10/22 00:57:54;;;;;;;1.95;0.70;;;;;;;;;;4989530;28;20026;-70
2021/10/22 01:00:20;;;;;;;3.38;0.80;;;;;;;;;;4989114;28;20043;-70
2021/10/22 01:02:46;;;;;;;2.90;0.77;;;;;;;;;;4995536;28;20128;-71
2021/10/22 01:05:15;;;;;;;2.15;0.60;;;;;;;;;;4989063;28;20156;-69
2021/10/22 01:07:41;;;;;;;2.67;0.73;;;;;;;;;;4989446;28;20038;-71
2021/10/22 01:10:07;;;;;;;1.13;0.70;;;;;;;;;;5008270;28;20114;-70
2021/10/22 01:12:32;;;;;;;3.08;0.90;;;;;;;;;;5002690;28;20033;-70
2021/10/22 01:14:58;;;;;;;2.22;0.68;;;;;;;;;;4990007;28;20394;-70
2021/10/22 01:17:31;;;;;;;2.85;0.90;;;;;;;;;;4989448;28;20197;-70
2021/10/22 01:19:56;;;;;;;2.38;0.80;;;;;;;;;;4993013;28;20377;-71
2021/10/22 01:22:21;;;;;;;3.38;1.00;;;;;;;;;;4990129;28;20035;-71
2021/10/22 01:24:47;;;;;;;2.97;0.60;;;;;;;;;;4990259;28;20072;-71
2021/10/22 01:27:12;;;;;;;2.80;0.70;;;;;;;;;;4989344;28;20033;-70
2021/10/22 01:29:38;;;;;;;4.68;0.70;;;;;;;;;;4989253;28;20034;-70
2021/10/22 01:32:03;;;;;;;4.57;1.02;;;;;;;;;;4989412;28;20022;-70
2021/10/22 01:34:28;;;;;;;6.97;1.27;;;;;;;;;;4996558;28;20466;-70
2021/10/22 01:36:53;;;;;;;3.60;0.82;;;;;;;;;;5010436;28;20044;-70
2021/10/22 01:39:18;;;;;;;3.42;0.80;;;;;;;;;;5011679;28;20021;-71
2021/10/22 01:41:44;;;;;;;4.78;1.13;;;;;;;;;;5012438;28;20073;-70
2021/10/22 01:44:12;;;;;;;2.47;0.90;;;;;;;;;;5009798;28;20065;-70
2021/10/22 01:46:37;;;;;;;3.05;0.88;;;;;;;;;;4992707;28;20283;-69
2021/10/22 01:49:03;;;;;;;2.58;0.95;;;;;;;;;;4994404;28;20441;-70
2021/10/22 01:51:28;;;;;;;3.78;0.75;;;;;;;;;;5005917;28;20476;-71
2021/10/22 01:53:54;;;;;;;3.65;1.17;;;;;;;;;;5011318;28;20037;-71
2021/10/22 01:56:19;;;;;;;5.53;1.17;;;;;;;;;;4998456;28;20051;-71
2021/10/22 01:58:44;;;;;;;4.25;1.10;;;;;;;;;;4992684;28;20371;-70
2021/10/22 02:01:09;;;;;;;2.78;0.88;;;;;;;;;;4992062;28;20560;-71
2021/10/22 02:03:34;;;;;;;4.03;0.82;;;;;;;;;;5010066;28;20026;-70
2021/10/22 02:06:00;;;;;;;5.00;1.15;;;;;;;;;;5006121;28;20018;-71
2021/10/22 02:08:25;;;;;;;4.45;1.05;;;;;;;;;;4992402;28;20124;-72
2021/10/22 02:10:50;;;;;;;1.90;1.00;;;;;;;;;;4992235;28;20110;-70
2021/10/22 02:13:16;;;;;;;4.55;1.20;;;;;;;;;;4992224;28;20018;-70
2021/10/22 02:15:41;;;;;;;4.18;1.45;;;;;;;;;;4993406;28;20040;-71
2021/10/22 02:18:06;;;;;;;3.55;1.00;;;;;;;;;;4998175;28;20051;-70
2021/10/22 02:20:31;;;;;;;6.18;1.55;;;;;;;;;;4996301;28;20014;-70
2021/10/22 02:22:56;;;;;;;3.45;1.30;;;;;;;;;;4992132;28;20030;-71
2021/10/22 02:25:22;;;;;;;2.13;1.05;;;;;;;;;;4991794;28;20049;-70
2021/10/22 02:27:47;;;;;;;3.72;1.23;;;;;;;;;;4997203;28;20026;-70
2021/10/22 02:30:13;;;;;;;4.28;1.13;;;;;;;;;;4991779;28;20026;-70
2021/10/22 02:32:38;;;;;;;4.15;1.30;;;;;;;;;;4991579;28;20038;-70
2021/10/22 02:35:03;;;;;;;4.50;1.20;;;;;;;;;;4992114;28;20018;-70
2021/10/22 02:37:28;;;;;;;11.48;1.63;;;;;;;;;;5003859;28;20025;-71
2021/10/22 02:39:54;;;;;;;6.55;1.48;;;;;;;;;;4995356;28;20121;-70
2021/10/22 02:42:19;;;;;;;3.08;1.13;;;;;;;;;;4991294;28;20828;-70
2021/10/22 02:44:44;;;;;;;3.88;1.08;;;;;;;;;;4991870;28;20018;-70
2021/10/22 02:47:09;;;;;;;2.85;1.00;;;;;;;;;;4990922;28;20036;-70
2021/10/22 02:49:34;;;;;;;5.28;0.90;;;;;;;;;;4997061;28;20110;-70
2021/10/22 02:52:00;;;;;;;3.40;0.95;;;;;;;;;;5000027;28;20030;-71
2021/10/22 02:54:25;;;;;;;2.88;1.05;;;;;;;;;;5004121;28;20030;-70
2021/10/22 02:56:50;;;;;;;2.35;0.90;;;;;;;;;;5009835;28;20045;-70
2021/10/22 02:59:15;;;;;;;2.33;0.80;;;;;;;;;;5008594;28;20108;-70
2021/10/22 03:01:41;;;;;;;2.75;1.00;;;;;;;;;;4990786;28;20086;-70
2021/10/22 03:04:06;;;;;;;2.10;0.95;;;;;;;;;;4991231;28;20048;-71
2021/10/22 03:06:31;;;;;;;3.22;0.90;;;;;;;;;;4990911;28;20359;-70
2021/10/22 03:08:56;;;;;;;2.83;1.20;;;;;;;;;;4991775;28;20026;-70
2021/10/22 03:11:22;;;;;;;4.10;0.95;;;;;;;;;;5003067;28;20017;-70
2021/10/22 03:13:47;;;;;;;2.90;0.82;;;;;;;;;;5009971;28;20033;-71
2021/10/22 03:16:13;;;;;;;3.08;0.95;;;;;;;;;;5009844;28;20021;-71
2021/10/22 03:18:38;;;;;;;2.60;0.88;;;;;;;;;;5005958;28;20033;-70
2021/10/22 03:21:03;;;;;;;1.42;0.80;;;;;;;;;;4993355;28;20018;-71
2021/10/22 03:23:28;;;;;;;2.28;1.23;;;;;;;;;;4990699;28;20611;-69
2021/10/22 03:25:54;;;;;;;1.83;0.93;;;;;;;;;;4990819;28;20018;-71
2021/10/22 03:28:19;;;;;;;1.40;1.08;;;;;;;;;;4990798;28;20520;-71
2021/10/22 03:30:44;;;;;;;4.25;1.30;;;;;;;;;;4996812;28;20025;-70
2021/10/22 03:33:10;;;;;;;2.38;1.30;;;;;;;;;;4990503;28;20048;-70
2021/10/22 03:35:35;;;;;;;3.17;1.30;;;;;;;;;;4990530;28;20026;-70
2021/10/22 03:38:00;;;;;;;3.33;1.23;;;;;;;;;;4990520;28;20030;-70
2021/10/22 03:40:26;;;;;;;2.92;1.25;;;;;;;;;;5009761;28;20072;-71
2021/10/22 03:42:55;;;;;;;3.45;1.42;;;;;;;;;;4994756;28;20424;-71
2021/10/22 03:45:20;;;;;;;2.70;1.40;;;;;;;;;;4990459;28;20014;-70
2021/10/22 03:47:45;;;;;;;2.42;1.40;;;;;;;;;;4990602;28;20117;-69
2021/10/22 03:50:13;;;;;;;3.75;1.67;;;;;;;;;;4990834;28;20093;-71
2021/10/22 03:52:38;;;;;;;2.92;1.42;;;;;;;;;;4995177;28;20085;-70
2021/10/22 03:55:03;;;;;;;1.90;1.52;;;;;;;;;;4990169;28;20061;-70
2021/10/22 03:57:29;;;;;;;1.92;1.50;;;;;;;;;;4990484;28;20026;-70
2021/10/22 03:59:54;;;;;;;1.80;1.45;;;;;;;;;;4989878;28;20057;-70
2021/10/22 04:02:19;;;;;;;2.88;1.70;;;;;;;;;;4995970;28;20497;-70
2021/10/22 04:04:44;;;;;;;3.13;1.65;;;;;;;;;;4993518;28;20069;-71
2021/10/22 04:07:11;;;;;;;4.97;1.90;;;;;;;;;;4990111;28;20029;-70
2021/10/22 04:09:36;;;;;;;3.65;1.55;;;;;;;;;;4999704;28;20091;-71
2021/10/22 04:12:01;;;;;;;2.63;1.98;;;;;;;;;;4994811;28;20026;-71
2021/10/22 04:14:26;;;;;;;3.80;1.83;;;;;;;;;;4996070;28;20053;-70
2021/10/22 04:16:52;;;;;;;3.95;2.28;;;;;;;;;;4989990;28;20022;-71
2021/10/22 04:19:17;;;;;;;4.95;2.80;;;;;;;;;;4996397;28;20037;-71
2021/10/22 04:21:42;;;;;;;4.18;3.05;;;;;;;;;;4990857;28;20097;-70
2021/10/22 04:24:08;;;;;;;5.40;3.38;;;;;;;;;;5001198;28;20596;-71
2021/10/22 04:26:33;;;;;;;5.35;3.50;;;;;;;;;;4991137;28;20030;-70
2021/10/22 04:28:58;;;;;;;6.25;3.78;;;;;;;;;;4996461;28;20045;-71
2021/10/22 04:31:24;;;;;;;5.70;3.47;;;;;;;;;;4991427;28;20028;-70
2021/10/22 04:33:49;;;;;;;6.70;4.10;;;;;;;;;;4998519;28;20014;-71
2021/10/22 04:36:14;;;;;;;6.07;3.50;;;;;;;;;;4997771;28;20465;-70
2021/10/22 04:41:23;;;;;;;6.55;3.70;;;;;;;;;;4989541;28;20552;-69
2021/10/22 04:43:49;;;;;;;7.25;3.70;;;;;;;;;;4994613;28;20078;-70
2021/10/22 04:46:14;;;;;;;8.13;4.30;;;;;;;;;;4991719;28;20030;-70
2021/10/22 04:48:40;;;;;;;7.13;4.53;;;;;;;;;;4989728;28;20022;-69
2021/10/22 04:51:06;;;;;;;7.22;5.00;;;;;;;;;;4989837;28;20018;-70
2021/10/22 04:53:31;;;;;;;9.85;5.10;;;;;;;;;;4997857;28;20468;-71
2021/10/22 04:55:56;;;;;;;6.43;4.47;;;;;;;;;;5008087;28;20034;-70
2021/10/22 04:58:22;;;;;;;8.05;4.40;;;;;;;;;;5008279;28;20041;-70
2021/10/22 05:00:47;;;;;;;8.00;4.18;;;;;;;;;;5008109;28;20046;-70
2021/10/22 05:03:12;;;;;;;9.82;4.20;;;;;;;;;;5008580;28;20141;-71
2021/10/22 05:05:37;;;;;;;8.07;4.82;;;;;;;;;;4995022;28;20022;-69
2021/10/22 05:08:03;;;;;;;9.90;4.90;;;;;;;;;;4990370;28;20098;-69
2021/10/22 05:10:28;;;;;;;8.43;4.90;;;;;;;;;;4990444;28;20089;-69
2021/10/22 05:12:53;;;;;;;7.82;4.72;;;;;;;;;;4993541;28;20018;-69
2021/10/22 05:15:19;;;;;;;8.38;4.88;;;;;;;;;;4999289;28;20033;-70
2021/10/22 05:17:44;;;;;;;6.25;4.38;;;;;;;;;;4993603;28;20038;-70
2021/10/22 05:20:09;;;;;;;10.05;5.30;;;;;;;;;;5011069;28;20430;-70
2021/10/22 05:22:36;;;;;;;8.07;5.40;;;;;;;;;;5011869;28;20042;-69
2021/10/22 05:25:02;;;;;;;8.93;5.57;;;;;;;;;;5012143;28;20437;-70
2021/10/22 05:27:27;;;;;;;8.93;5.38;;;;;;;;;;4994640;28;20149;-71
2021/10/22 05:29:52;;;;;;;9.63;5.57;;;;;;;;;;4993044;28;20667;-69
2021/10/22 05:32:18;;;;;;;10.35;5.63;;;;;;;;;;5001090;28;20026;-70
2021/10/22 05:34:43;;;;;;;8.27;5.18;;;;;;;;;;5011950;28;20474;-70
2021/10/22 05:37:08;;;;;;;8.85;5.07;;;;;;;;;;4997767;28;20026;-70
2021/10/22 05:39:33;;;;;;;9.48;5.47;;;;;;;;;;5006057;28;20071;-70
2021/10/22 05:41:58;;;;;;;9.23;5.10;;;;;;;;;;5011601;28;20038;-70
2021/10/22 05:44:24;;;;;;;11.00;5.82;;;;;;;;;;5011848;28;20026;-70
2021/10/22 05:46:53;;;;;;;9.88;5.03;;;;;;;;;;5005237;28;20038;-70
2021/10/22 05:49:18;;;;;;;9.07;5.60;;;;;;;;;;5004088;28;20091;-70
2021/10/22 05:51:43;;;;;;;9.45;5.50;;;;;;;;;;5011421;28;20026;-72
2021/10/22 05:54:08;;;;;;;11.10;6.55;;;;;;;;;;5011609;28;20030;-70
2021/10/22 05:56:34;;;;;;;9.70;5.95;;;;;;;;;;5011252;28;20029;-69
2021/10/22 05:58:59;;;;;;;11.02;5.78;;;;;;;;;;4999962;28;20568;-70
2021/10/22 06:01:24;;;;;;;11.20;6.22;;;;;;;;;;4992619;28;20054;-70
2021/10/22 06:03:50;;;;;;;13.18;6.07;;;;;;;;;;4992656;28;20109;-70
2021/10/22 06:06:15;;;;;;;15.23;6.75;;;;;;;;;;4992740;28;20014;-70
2021/10/22 06:08:41;;;;;;;12.15;6.75;;;;;;;;;;4996486;28;20026;-70
2021/10/22 06:11:11;;;;;;;12.50;6.32;;;;;;;;;;4992670;28;20109;-70
2021/10/22 06:13:37;;;;;;;13.48;7.15;;;;;;;;;;4992218;28;20463;-70
2021/10/22 06:16:02;;;;;;;11.10;6.18;;;;;;;;;;4992140;28;20489;-70
2021/10/22 06:18:27;;;;;;;11.27;6.45;;;;;;;;;;4998497;28;20026;-70
2021/10/22 06:21:09;;;;;;;13.27;6.57;;;;;;;;;;5005592;28;20036;-70
2021/10/22 06:26:18;;;;;;;14.32;6.90;;;;;;;;;;5010385;28;20033;-71
2021/10/22 06:28:44;;;;;;;13.35;7.13;;;;;;;;;;4999155;28;20038;-70
2021/10/22 06:31:11;;;;;;;14.13;6.47;;;;;;;;;;4997387;28;20025;-69
2021/10/22 06:33:36;;;;;;;11.38;6.43;;;;;;;;;;4998830;28;20034;-70
2021/10/22 06:36:02;;;;;;;10.68;6.68;;;;;;;;;;4991952;28;20344;-70
2021/10/22 06:38:27;;;;;;;12.20;6.25;;;;;;;;;;4991802;28;20029;-69
2021/10/22 06:40:55;;;;;;;13.23;6.60;;;;;;;;;;4997994;28;20033;-71
2021/10/22 06:43:21;;;;;;;9.82;6.22;;;;;;;;;;4991775;28;20053;-70
2021/10/22 06:45:47;;;;;;;11.65;5.47;;;;;;;;;;4991859;28;20026;-70
2021/10/22 06:48:12;;;;;;;13.13;6.43;;;;;;;;;;4993272;28;20088;-71
2021/10/22 06:50:37;;;;;;;11.93;6.18;;;;;;;;;;4997372;28;20038;-70
2021/10/22 06:53:03;;;;;;;12.90;5.72;;;;;;;;;;4991483;28;20034;-70
2021/10/22 06:55:28;;;;;;;14.02;6.75;;;;;;;;;;4991661;28;20064;-72
2021/10/22 06:57:53;;;;;;;9.75;6.18;;;;;;;;;;5003862;28;20022;-70
2021/10/22 07:00:18;;;;;;;11.70;6.05;;;;;;;;;;5010150;28;20057;-70
2021/10/22 07:02:46;;;;;;;10.82;6.10;;;;;;;;;;5003129;28;20038;-70
2021/10/22 07:07:59;;;;;;;11.70;5.05;;;;;;;;;;4999083;28;20068;-70
2021/10/22 07:10:25;;;;;;;8.25;4.05;;;;;;;;;;4995671;28;20045;-71
2021/10/22 07:12:51;;;;;;;8.65;4.63;;;;;;;;;;5000968;28;20022;-70
2021/10/22 07:15:17;;;;;;;8.85;4.78;;;;;;;;;;4996504;28;20539;-69
2021/10/22 07:17:44;;;;;;;8.60;3.85;;;;;;;;;;4997727;28;20041;-70
2021/10/22 07:20:11;;;;;;;7.32;3.15;;;;;;;;;;5002307;28;20026;-69
2021/10/22 07:22:40;;;;;;;6.35;3.65;;;;;;;;;;5002949;28;20401;-69
2021/10/22 07:25:05;;;;;;;6.88;3.53;;;;;;;;;;5002536;28;20021;-70
2021/10/22 07:27:31;;;;;;;7.57;3.80;;;;;;;;;;5010277;28;20076;-69
2021/10/22 07:29:57;;;;;;;9.40;3.85;;;;;;;;;;4995733;28;20022;-70
2021/10/22 07:32:22;;;;;;;7.95;3.15;;;;;;;;;;4990638;28;20482;-70
2021/10/22 07:34:47;;;;;;;10.27;3.15;;;;;;;;;;4999000;28;20026;-70
2021/10/22 07:37:12;;;;;;;8.25;3.50;;;;;;;;;;4992864;28;20057;-68
2021/10/22 07:39:37;;;;;;;10.40;3.70;;;;;;;;;;4999391;28;20388;-69
2021/10/22 07:42:03;;;;;;;8.88;3.38;;;;;;;;;;4991191;28;20038;-69
2021/10/22 07:44:29;;;;;;;10.30;4.05;;;;;;;;;;5001500;28;20492;-69
2021/10/22 07:46:54;;;;;;;8.50;4.18;;;;;;;;;;5005946;28;20125;-71
2021/10/22 07:49:20;;;;;;;11.60;4.00;;;;;;;;;;5006678;28;20097;-70
2021/10/22 07:51:46;;;;;;;11.50;3.88;;;;;;;;;;4991962;28;20117;-69
2021/10/22 07:54:11;;;;;;;12.15;4.18;;;;;;;;;;4998616;28;20124;-70
2021/10/22 07:56:36;;;;;;;9.20;4.20;;;;;;;;;;4999015;28;20076;-71
2021/10/22 07:59:03;;;;;;;10.90;3.67;;;;;;;;;;4996434;28;20031;-70
2021/10/22 08:01:29;;;;;;;9.25;3.63;;;;;;;;;;4997199;28;20050;-69
2021/10/22 08:03:54;;;;;;;9.85;4.18;;;;;;;;;;4990187;28;20045;-69
2021/10/22 08:06:19;;;;;;;12.05;4.30;;;;;;;;;;5004809;28;20075;-70
2021/10/22 08:08:45;;;;;;;11.60;5.13;;;;;;;;;;4999606;28;20026;-70
2021/10/22 08:11:12;;;;;;;9.18;4.05;;;;;;;;;;4991906;28;20026;-70
2021/10/22 08:13:37;;;;;;;10.55;3.88;;;;;;;;;;4990347;28;20472;-70
2021/10/22 08:16:03;;;;;;;9.35;3.75;;;;;;;;;;4996693;28;20084;-70
2021/10/22 08:18:28;;;;;;;9.73;3.85;;;;;;;;;;4992216;28;20032;-70
2021/10/22 08:20:58;;;;;;;9.88;3.90;;;;;;;;;;4992799;28;20144;-70
2021/10/22 08:23:23;;;;;;;8.30;3.95;;;;;;;;;;4992654;28;20505;-65
2021/10/22 08:25:49;;;;;;;8.88;4.13;;;;;;;;;;5005861;28;20029;-64
2021/10/22 08:28:15;;;;;;;6.55;3.70;;;;;;;;;;5000967;28;20037;-65
2021/10/22 08:30:40;;;;;;;8.20;4.53;;;;;;;;;;4994012;28;20045;-66
2021/10/22 08:33:08;;;;;;;8.32;4.65;;;;;;;;;;4994566;28;20076;-64
2021/10/22 08:35:33;;;;;;;8.32;4.00;;;;;;;;;;4996777;28;20026;-65
2021/10/22 08:37:58;;;;;;;7.25;4.10;;;;;;;;;;5000459;28;20034;-64
2021/10/22 08:40:24;;;;;;;9.63;3.63;;;;;;;;;;5000561;28;20029;-69
2021/10/22 08:42:49;;;;;;;9.63;4.38;;;;;;;;;;4990289;28;20105;-65
2021/10/22 08:45:15;;;;;;;6.85;3.70;;;;;;;;;;4990075;28;20052;-66
2021/10/22 08:47:41;;;;;;;8.20;4.10;;;;;;;;;;4996119;28;20077;-66
2021/10/22 08:50:11;;;;;;;7.70;3.97;;;;;;;;;;5000865;28;20022;-67
2021/10/22 08:52:37;;;;;;;9.02;3.88;;;;;;;;;;4999568;28;20038;-67
2021/10/22 08:55:03;;;;;;;10.00;3.67;;;;;;;;;;4994067;28;20027;-67
2021/10/22 08:57:28;;;;;;;7.20;3.30;;;;;;;;;;4993535;28;20038;-66
2021/10/22 08:59:57;;;;;;;7.43;3.60;;;;;;;;;;5000103;28;20050;-67
2021/10/22 09:02:25;;;;;;;9.38;4.38;;;;;;;;;;4993845;28;20042;-66
2021/10/22 09:04:50;;;;;;;5.25;3.40;;;;;;;;;;4993411;28;20152;-66
2021/10/22 09:07:17;;;;;;;6.30;3.13;;;;;;;;;;4993705;28;20034;-66
2021/10/22 09:09:43;;;;;;;9.75;4.03;;;;;;;;;;4994895;28;20053;-67
2021/10/22 09:12:09;;;;;;;8.07;3.42;;;;;;;;;;4993676;28;20022;-67
2021/10/22 09:14:35;;;;;;;4.93;3.00;;;;;;;;;;4993303;28;20022;-66
2021/10/22 09:17:00;;;;;;;7.28;3.03;;;;;;;;;;4993329;28;20489;-66
2021/10/22 09:19:26;;;;;;;5.63;3.13;;;;;;;;;;5000502;28;20017;-67
2021/10/22 09:21:52;;;;;;;6.50;3.08;;;;;;;;;;4993601;28;20113;-66
2021/10/22 09:24:20;;;;;;;6.18;3.50;;;;;;;;;;4999290;28;20106;-62
2021/10/22 09:26:53;;;;;;;6.05;3.10;;;;;;;;;;4993342;28;20081;-62
2021/10/22 09:29:19;;;;;;;7.47;3.40;;;;;;;;;;4992751;28;20076;-61
2021/10/22 09:31:45;;;;;;;6.18;3.78;;;;;;;;;;4996541;28;20018;-62
2021/10/22 09:34:10;;;;;;;6.68;3.30;;;;;;;;;;5002737;28;20085;-62
2021/10/22 09:36:37;;;;;;;4.68;2.55;;;;;;;;;;4996023;28;20034;-63
2021/10/22 09:39:07;;;;;;;6.05;2.60;;;;;;;;;;4993292;28;20025;-62
2021/10/22 09:41:34;;;;;;;4.80;2.47;;;;;;;;;;5004832;28;20071;-61
2021/10/22 09:44:16;;;;;;;5.47;2.47;;;;;;;;;;5004230;28;20049;-61
2021/10/22 09:46:41;;;;;;;6.22;2.47;;;;;;;;;;4999639;28;20018;-63
2021/10/22 09:49:06;;;;;;;5.50;2.08;;;;;;;;;;5003539;28;20118;-61
2021/10/22 09:51:33;;;;;;;6.38;2.85;;;;;;;;;;5004620;28;20022;-62
2021/10/22 09:54:03;;;;;;;4.40;2.45;;;;;;;;;;5004497;28;20477;-61
2021/10/22 09:56:29;;;;;;;7.55;2.35;;;;;;;;;;5006449;28;20096;-61
2021/10/22 09:59:23;;;;;;;8.40;2.63;;;;;;;;;;5004956;28;20536;-60
2021/10/22 10:01:48;;;;;;;5.25;2.22;;;;;;;;;;5006677;28;20046;-63
2021/10/22 10:04:14;;;;;;;5.65;2.50;;;;;;;;;;5004681;28;20033;-61
2021/10/22 10:06:40;;;;;;;6.88;2.22;;;;;;;;;;5006258;28;20081;-62
2021/10/22 10:09:08;;;;;;;6.32;1.98;;;;;;;;;;5001481;28;20101;-62
2021/10/22 10:11:33;;;;;;;5.03;2.03;;;;;;;;;;5006513;28;20018;-62
2021/10/22 10:14:00;;;;;;;5.50;2.20;;;;;;;;;;5011912;28;20079;-62
2021/10/22 10:16:26;;;;;;;4.80;1.80;;;;;;;;;;5005921;28;20014;-62
2021/10/22 10:18:51;;;;;;;5.10;2.50;;;;;;;;;;5003829;28;20052;-63
2021/10/22 10:21:18;;;;;;;4.22;1.77;;;;;;;;;;5006876;28;20022;-62
2021/10/22 10:23:44;;;;;;;4.65;1.88;;;;;;;;;;4997194;28;20486;-61
2021/10/22 10:26:23;;;;;;;6.13;2.10;;;;;;;;;;4993608;28;20528;-63
2021/10/22 10:28:50;;;;;;;5.32;2.50;;;;;;;;;;4992221;28;20394;-63
2021/10/22 10:31:46;;;;;;;4.65;2.20;;;;;;;;;;4993222;28;20081;-63
2021/10/22 10:34:26;;;;;;;5.10;2.30;;;;;;;;;;5026089;28;20036;-63
2021/10/22 10:36:52;;;;;;;4.93;2.42;;;;;;;;;;5027462;28;20060;-63
2021/10/22 10:39:36;;;;;;;4.25;2.45;;;;;;;;;;5027802;28;20040;-63
2021/10/22 10:42:20;;;;;;;6.25;2.50;;;;;;;;;;5027595;28;20033;-62
2021/10/22 10:44:46;;;;;;;5.70;2.42;;;;;;;;;;5025414;28;20088;-63
2021/10/22 10:47:26;;;;;;;3.75;2.40;;;;;;;;;;5025768;28;20060;-62
2021/10/22 10:49:51;;;;;;;5.10;2.22;;;;;;;;;;5027890;28;20106;-63
2021/10/22 10:52:35;;;;;;;9.93;2.70;;;;;;;;;;5027130;28;20124;-63
2021/10/22 10:55:40;;;;;;;6.38;2.22;;;;;;;;;;5024921;28;20025;-63
2021/10/22 10:58:07;;;;;;;5.13;2.38;;;;;;;;;;5027091;28;20136;-62
2021/10/22 11:00:37;;;;;;;6.18;2.28;;;;;;;;;;5026691;28;20099;-62
2021/10/22 11:03:03;;;;;;;5.20;2.65;;;;;;;;;;5027472;28;20134;-62
2021/10/22 11:05:43;;;;;;;5.72;2.50;;;;;;;;;;5026127;28;20112;-61
2021/10/22 11:08:24;;;;;;;7.05;2.20;;;;;;;;;;5026214;28;20547;-62
2021/10/22 11:11:04;;;;;;;5.20;2.08;;;;;;;;;;5010154;28;20045;-62
2021/10/22 11:13:41;;;;;;;5.75;2.10;;;;;;;;;;4991358;28;20030;-62
2021/10/22 11:16:06;;;;;;;6.50;2.03;;;;;;;;;;4997771;28;20030;-61
2021/10/22 11:18:33;;;;;;;7.47;2.22;;;;;;;;;;4996477;28;20092;-61
2021/10/22 11:20:59;;;;;;;4.72;1.63;;;;;;;;;;4995563;28;20034;-62
2021/10/22 11:23:24;;;;;;;5.97;1.95;;;;;;;;;;4995989;28;20474;-61
2021/10/22 11:25:54;;;;;;;5.47;2.28;;;;;;;;;;4990564;28;20033;-61
2021/10/22 11:28:27;;;;;;;6.65;1.85;;;;;;;;;;4990139;28;20051;-62
2021/10/22 11:30:54;;;;;;;6.07;1.80;;;;;;;;;;4996685;28;20026;-61
2021/10/22 11:33:20;;;;;;;5.00;1.95;;;;;;;;;;4994246;28;20113;-62
2021/10/22 11:35:45;;;;;;;6.60;2.38;;;;;;;;;;4997260;28;20141;-63
2021/10/22 11:38:10;;;;;;;8.18;2.10;;;;;;;;;;5008948;28;20029;-61
2021/10/22 11:40:35;;;;;;;8.52;2.38;;;;;;;;;;4998187;28;20459;-61
2021/10/22 11:43:07;;;;;;;6.78;2.05;;;;;;;;;;5004064;28;20512;-60
2021/10/22 11:45:32;;;;;;;6.90;1.98;;;;;;;;;;5001561;28;20018;-61
2021/10/22 11:47:58;;;;;;;4.85;1.70;;;;;;;;;;5000235;28;20457;-61
2021/10/22 11:50:25;;;;;;;4.63;2.10;;;;;;;;;;4996332;28;20449;-60
2021/10/22 11:53:10;;;;;;;5.95;2.22;;;;;;;;;;4995748;28;20034;-62
2021/10/22 11:55:35;;;;;;;8.13;2.30;;;;;;;;;;4998841;28;20092;-62
2021/10/22 11:58:10;;;;;;;5.50;2.35;;;;;;;;;;5001989;28;20444;-62
2021/10/22 12:00:36;;;;;;;6.93;2.70;;;;;;;;;;5000082;28;20042;-62
2021/10/22 12:03:01;;;;;;;4.47;2.50;;;;;;;;;;5001106;28;20062;-61
2021/10/22 12:05:27;;;;;;;5.78;2.28;;;;;;;;;;5004205;28;20045;-61
2021/10/22 12:07:57;;;;;;;7.55;2.35;;;;;;;;;;4991609;28;20113;-60
2021/10/22 12:10:23;;;;;;;7.82;2.28;;;;;;;;;;4992560;28;20022;-61
2021/10/22 12:12:50;;;;;;;5.70;2.53;;;;;;;;;;5001707;28;20482;-62
2021/10/22 12:15:16;;;;;;;5.18;2.15;;;;;;;;;;4995447;28;20033;-61
2021/10/22 12:17:42;;;;;;;7.07;2.17;;;;;;;;;;4991363;28;20030;-61
2021/10/22 12:20:09;;;;;;;4.03;1.95;;;;;;;;;;4995132;28;20470;-61
2021/10/22 12:22:44;;;;;;;4.88;1.65;;;;;;;;;;4995709;28;20117;-61
2021/10/22 12:25:17;;;;;;;7.65;2.13;;;;;;;;;;4993776;28;20026;-62
2021/10/22 12:27:46;;;;;;;9.80;2.70;;;;;;;;;;4996287;28;20532;-61
2021/10/22 12:30:13;;;;;;;6.00;1.92;;;;;;;;;;4990193;28;20119;-61
2021/10/22 12:32:40;;;;;;;7.72;2.00;;;;;;;;;;4989428;28;20041;-61
2021/10/22 12:35:26;;;;;;;7.40;2.13;;;;;;;;;;4990779;28;20048;-62
2021/10/22 12:38:06;;;;;;;5.20;2.33;;;;;;;;;;4997727;28;20530;-61
2021/10/22 12:40:33;;;;;;;4.47;2.22;;;;;;;;;;4990356;28;20030;-61
2021/10/22 12:43:22;;;;;;;10.88;2.58;;;;;;;;;;5000495;28;20058;-62
2021/10/22 12:45:54;;;;;;;5.07;1.95;;;;;;;;;;4988098;28;20057;-61
2021/10/22 12:48:24;;;;;;;5.03;2.25;;;;;;;;;;4986470;28;20421;-61
2021/10/22 12:50:49;;;;;;;4.50;1.83;;;;;;;;;;4986064;28;20111;-61
2021/10/22 12:53:19;;;;;;;5.95;1.75;;;;;;;;;;4985463;28;20680;-61
2021/10/22 12:55:45;;;;;;;5.57;2.00;;;;;;;;;;4984980;28;20106;-62
2021/10/22 12:58:20;;;;;;;4.45;1.90;;;;;;;;;;4993594;28;20049;-61
2021/10/22 13:01:01;;;;;;;5.22;1.70;;;;;;;;;;4986655;28;20049;-61
2021/10/22 13:03:27;;;;;;;3.85;1.80;;;;;;;;;;4980625;28;20042;-63
2021/10/22 13:05:53;;;;;;;4.70;2.00;;;;;;;;;;4986206;28;20429;-61
2021/10/22 13:08:27;;;;;;;6.25;2.20;;;;;;;;;;4986363;28;20030;-62
2021/10/22 13:11:07;;;;;;;4.82;1.80;;;;;;;;;;4986104;28;20237;-61
2021/10/22 13:13:50;;;;;;;6.97;2.10;;;;;;;;;;4986247;28;20025;-61
2021/10/22 13:21:45;;;;;;;5.07;1.80;;;;;;;;;;4987703;28;20066;-61
2021/10/22 13:24:10;;;;;;;4.82;1.63;;;;;;;;;;5007930;28;20108;-61
2021/10/22 13:26:38;;;;;;;5.13;1.65;;;;;;;;;;5007800;28;20462;-62
2021/10/22 13:29:03;;;;;;;7.60;1.77;;;;;;;;;;5008481;28;20084;-61
2021/10/22 13:31:29;;;;;;;5.75;1.95;;;;;;;;;;4994959;28;20030;-60
2021/10/22 13:33:54;;;;;;;4.15;1.52;;;;;;;;;;4999739;28;20029;-62
2021/10/22 13:36:19;;;;;;;6.60;2.40;;;;;;;;;;4995126;28;20029;-61
2021/10/22 13:38:45;;;;;;;6.50;2.45;;;;;;;;;;5015507;28;20576;-62
2021/10/22 13:41:10;;;;;;;6.25;1.83;;;;;;;;;;4993184;28;20034;-63
2021/10/22 13:43:35;;;;;;;7.18;2.05;;;;;;;;;;5002226;28;20038;-61
2021/10/22 13:46:02;;;;;;;5.82;1.92;;;;;;;;;;5005510;28;20409;-61
2021/10/22 13:48:27;;;;;;;8.50;2.00;;;;;;;;;;5002688;28;20815;-61
2021/10/22 13:50:52;;;;;;;9.68;2.60;;;;;;;;;;5006378;28;20030;-61
2021/10/22 13:53:21;;;;;;;8.98;2.75;;;;;;;;;;5011196;28;20041;-62
2021/10/22 13:55:47;;;;;;;9.73;2.38;;;;;;;;;;5009755;28;20541;-61
2021/10/22 13:58:12;;;;;;;6.80;2.20;;;;;;;;;;5010688;28;20054;-62
2021/10/22 14:00:38;;;;;;;3.88;2.20;;;;;;;;;;5005037;28;20061;-62
2021/10/22 14:03:03;;;;;;;7.63;2.60;;;;;;;;;;5004186;28;20045;-61
2021/10/22 14:05:28;;;;;;;4.13;2.25;;;;;;;;;;5009607;28;20030;-61
2021/10/22 14:07:54;;;;;;;4.38;2.53;;;;;;;;;;5008519;28;20027;-61
2021/10/22 14:10:24;;;;;;;6.13;2.20;;;;;;;;;;4999478;28;20018;-61
2021/10/22 14:13:01;;;;;;;6.20;2.40;;;;;;;;;;5003575;28;20018;-61
2021/10/22 14:31:07;;;;;;;5.72;1.60;;;;;;;;;;5001984;28;20096;-61
2021/10/22 14:33:32;;;;;;;4.50;1.60;;;;;;;;;;4993485;28;20433;-61
2021/10/22 14:35:58;;;;;;;5.60;1.45;;;;;;;;;;4995253;28;20028;-63
2021/10/22 14:38:23;;;;;;;4.45;1.45;;;;;;;;;;5002162;28;20033;-62
2021/10/22 14:40:51;;;;;;;4.30;1.52;;;;;;;;;;5001503;28;20049;-60
2021/10/22 14:43:24;;;;;;;4.50;1.38;;;;;;;;;;5004246;28;20073;-61
2021/10/22 14:46:00;;;;;;;5.35;1.65;;;;;;;;;;5003536;28;20026;-62
2021/10/22 14:48:25;;;;;;;4.88;1.42;;;;;;;;;;5004458;28;20116;-61
2021/10/22 14:50:51;;;;;;;5.60;1.50;;;;;;;;;;5010391;28;20459;-61
2021/10/22 14:55:50;;;;;;;8.75;1.77;;;;;;;;;;5010323;28;20481;-61
2021/10/22 14:58:17;;;;;;;4.18;1.40;;;;;;;;;;5002803;28;20056;-61
2021/10/22 15:00:43;;;;;;;4.80;1.50;;;;;;;;;;4991871;28;20070;-62
2021/10/22 15:03:08;;;;;;;5.57;1.52;;;;;;;;;;5002194;28;20069;-61
2021/10/22 15:05:34;;;;;;;5.53;1.70;;;;;;;;;;4991416;28;20026;-62
2021/10/22 15:08:00;;;;;;;4.30;1.50;;;;;;;;;;4991000;28;20022;-63
2021/10/22 15:10:25;;;;;;;5.10;1.80;;;;;;;;;;4991647;28;20152;-60
2021/10/22 15:12:50;;;;;;;4.43;1.48;;;;;;;;;;4997444;28;20537;-62